Terminal Aerodrome Forecast
Issued by NWS

Home | Current Version | Previous Version | Text Only | Print | Product List | Glossary On
Versions: 1 2 3 4 5 6 7 8 9 10 11 12 13 14 15 16 17
000
FTUS41 KBTV 191732
TAFMSS
TAF
KMSS 191732Z 1918/2018 23010G18KT P6SM BKN030
      TEMPO 1918/1922 BKN020
     FM192200 22010G20KT P6SM BKN040
     FM200400 23016G27KT P6SM OVC100
     FM201000 23018G30KT P6SM OVC030
     FM201600 23014G24KT P6SM OVC015=

USA.gov is the U.S. government's official web portal to all federal, state and local government web resources and services.